createdAt,value
2018-09-03T00:01:10.982Z,98.30
2018-09-03T00:03:40.924Z,98.90
2018-09-03T00:06:12.060Z,98.40
2018-09-03T00:08:41.278Z,98.30
2018-09-03T00:11:10.479Z,97.80
2018-09-03T00:13:39.726Z,97.00
2018-09-03T00:16:12.882Z,97.80
2018-09-03T00:18:42.053Z,97.20
2018-09-03T00:21:21.356Z,97.30
2018-09-03T00:23:50.604Z,98.10
2018-09-03T00:26:19.995Z,98.40
2018-09-03T00:28:49.229Z,98.30
2018-09-03T00:31:23.690Z,97.40
2018-09-03T00:33:58.270Z,97.80
2018-09-03T00:38:41.430Z,98.80
2018-09-03T00:41:15.881Z,99.30
2018-09-03T00:43:50.495Z,98.40
2018-09-03T00:46:25.116Z,99.20
2018-09-03T00:48:54.380Z,99.40
2018-09-03T00:51:23.636Z,98.70
2018-09-03T00:53:52.871Z,98.50
2018-09-03T00:56:27.222Z,99.40
2018-09-03T00:58:56.562Z,98.60
2018-09-03T01:01:27.846Z,98.70
2018-09-03T01:03:57.390Z,99.30
2018-09-03T01:06:27.010Z,99.80
2018-09-03T01:08:56.266Z,99.80
2018-09-03T01:11:26.314Z,99.80
2018-09-03T01:13:56.431Z,99.90
2018-09-03T01:16:33.874Z,97.90
2018-09-03T01:19:04.247Z,98.60
2018-09-03T01:21:33.504Z,98.30
2018-09-03T01:24:02.721Z,97.80
2018-09-03T01:26:33.344Z,99.20
2018-09-03T01:29:02.718Z,99.90
2018-09-03T01:31:31.986Z,99.60
2018-09-03T01:34:01.247Z,99.80
2018-09-03T01:36:32.769Z,99.40
2018-09-03T01:39:02.858Z,99.00
2018-09-03T01:41:33.108Z,98.00
2018-09-03T01:44:02.393Z,98.50
2018-09-03T01:46:34.285Z,99.00
2018-09-03T01:49:03.496Z,99.10
2018-09-03T01:51:33.034Z,98.10
2018-09-03T01:54:02.272Z,98.90
2018-09-03T01:56:36.318Z,98.60
2018-09-03T01:59:05.599Z,98.60
2018-09-03T02:01:35.923Z,98.70
2018-09-03T02:04:05.131Z,98.70
2018-09-03T02:06:36.586Z,98.30
2018-09-03T02:09:09.559Z,98.30
2018-09-03T02:11:39.032Z,98.00
2018-09-03T02:14:08.223Z,98.10
2018-09-03T02:16:43.270Z,96.90
2018-09-03T02:19:12.567Z,96.50
2018-09-03T02:21:42.081Z,97.10
2018-09-03T02:24:11.862Z,98.60
2018-09-03T02:26:43.605Z,97.80
2018-09-03T02:29:12.802Z,99.10
2018-09-03T02:31:42.081Z,99.10
2018-09-03T02:34:11.330Z,99.20
2018-09-03T02:36:44.901Z,98.90
2018-09-03T02:39:14.218Z,99.00
2018-09-03T02:41:43.529Z,98.10
2018-09-03T02:44:12.835Z,97.90
2018-09-03T02:46:42.246Z,97.90
2018-09-03T02:49:11.444Z,97.90
2018-09-03T02:51:40.983Z,97.90
2018-09-03T02:54:10.190Z,98.70
2018-09-03T02:56:41.628Z,98.30
2018-09-03T02:59:10.904Z,98.10
2018-09-03T03:01:40.153Z,97.80
2018-09-03T03:04:09.392Z,98.20
2018-09-03T03:06:39.112Z,97.30
2018-09-03T03:09:09.319Z,97.80
2018-09-03T03:11:39.262Z,98.70
2018-09-03T03:14:08.849Z,99.30
2018-09-03T03:16:39.283Z,99.30
2018-09-03T03:19:08.534Z,99.10
2018-09-03T03:21:37.772Z,99.50
2018-09-03T03:24:06.979Z,99.10
2018-09-03T03:26:37.353Z,99.10
2018-09-03T03:29:06.527Z,98.90
2018-09-03T03:31:35.723Z,97.80
2018-09-03T03:34:05.490Z,98.20
2018-09-03T03:36:34.853Z,98.90
2018-09-03T03:39:04.752Z,98.70
2018-09-03T03:41:33.953Z,98.00
2018-09-03T03:44:03.273Z,96.90
2018-09-03T03:46:45.268Z,95.60
2018-09-03T03:49:14.844Z,96.20
2018-09-03T03:51:56.311Z,96.40
2018-09-03T03:54:25.691Z,97.20
2018-09-03T03:56:55.068Z,97.80
2018-09-03T03:59:24.215Z,97.50
2018-09-03T04:01:53.436Z,97.30
2018-09-03T04:04:22.662Z,96.60
2018-09-03T04:06:56.624Z,97.00
2018-09-03T04:09:25.821Z,96.80
2018-09-03T04:11:55.596Z,95.40
2018-09-03T04:14:24.841Z,95.90
2018-09-03T04:16:54.199Z,97.50
2018-09-03T04:19:23.409Z,98.30
2018-09-03T04:21:52.551Z,98.30
2018-09-03T04:24:31.059Z,98.80
2018-09-03T04:27:10.258Z,99.80
2018-09-03T04:29:39.990Z,98.30
2018-09-03T04:32:09.620Z,98.60
2018-09-03T04:34:38.837Z,97.80
2018-09-03T04:37:08.083Z,96.80
2018-09-03T04:39:37.266Z,97.50
2018-09-03T04:42:07.229Z,96.90
2018-09-03T04:44:36.626Z,97.90
2018-09-03T04:47:10.263Z,97.40
2018-09-03T04:49:44.039Z,97.50
2018-09-03T04:52:15.540Z,97.60
2018-09-03T04:54:44.844Z,97.80
2018-09-03T04:57:14.254Z,97.70
2018-09-03T04:59:43.730Z,97.50
2018-09-03T05:02:15.562Z,97.90
2018-09-03T05:04:44.970Z,98.40
2018-09-03T05:07:14.468Z,98.00
2018-09-03T05:09:43.650Z,98.00
2018-09-03T05:12:12.857Z,98.20
2018-09-03T05:14:42.086Z,98.80
2018-09-03T05:17:17.525Z,98.70
2018-09-03T05:19:46.757Z,98.60
2018-09-03T05:22:16.370Z,99.70
2018-09-03T05:24:45.579Z,99.60
2018-09-03T05:27:15.229Z,99.30
2018-09-03T05:29:46.279Z,99.00
2018-09-03T05:32:18.879Z,97.80
2018-09-03T05:34:50.321Z,97.50
2018-09-03T05:37:19.735Z,98.20
2018-09-03T05:39:48.980Z,97.00
2018-09-03T05:42:19.571Z,96.20
2018-09-03T05:44:48.848Z,96.00
2018-09-03T05:47:20.390Z,96.30
2018-09-03T05:49:49.610Z,96.50
2018-09-03T05:52:18.837Z,97.20
2018-09-03T05:54:48.067Z,97.60
2018-09-03T05:57:17.411Z,97.80
2018-09-03T05:59:46.633Z,97.80
2018-09-03T06:02:16.967Z,97.00
2018-09-03T06:04:46.288Z,94.80
2018-09-03T06:07:15.618Z,94.60
2018-09-03T06:09:44.822Z,93.80
2018-09-03T06:12:14.027Z,93.90
2018-09-03T06:14:43.242Z,94.60
2018-09-03T06:17:14.005Z,93.90
2018-09-03T06:19:43.216Z,93.60
2018-09-03T06:22:12.434Z,94.50
2018-09-03T06:24:41.667Z,93.80
2018-09-03T06:27:11.149Z,92.70
2018-09-03T06:29:40.363Z,92.00
2018-09-03T06:32:10.313Z,91.70
2018-09-03T06:34:39.575Z,91.60
2018-09-03T06:37:08.876Z,91.70
2018-09-03T06:39:38.190Z,91.60
2018-09-03T06:42:07.753Z,90.30
2018-09-03T06:44:36.930Z,88.80
2018-09-03T06:47:08.187Z,85.10
2018-09-03T06:49:37.432Z,85.10
2018-09-03T06:52:43.542Z,83.90
2018-09-03T06:55:12.873Z,84.90
2018-09-03T06:57:42.038Z,78.40
2018-09-03T07:00:11.338Z,80.10
2018-09-03T07:02:41.739Z,76.50
2018-09-03T07:05:11.496Z,76.60
2018-09-03T07:07:40.737Z,76.90
2018-09-03T07:10:10.557Z,73.20
2018-09-03T07:12:41.440Z,76.40
2018-09-03T07:15:11.270Z,71.10
2018-09-03T07:17:41.275Z,71.60
2018-09-03T07:20:10.505Z,72.50
2018-09-03T07:22:40.446Z,66.00
2018-09-03T07:25:10.005Z,65.90
2018-09-03T07:27:39.412Z,70.00
2018-09-03T07:30:08.686Z,67.20
2018-09-03T07:32:37.960Z,65.80
2018-09-03T07:35:07.951Z,65.50
2018-09-03T07:37:37.363Z,68.20
2018-09-03T07:40:07.347Z,63.30
2018-09-03T07:42:36.851Z,63.70
2018-09-03T07:45:06.528Z,63.70
2018-09-03T07:47:35.795Z,61.40
2018-09-03T07:50:05.263Z,62.50
2018-09-03T07:52:34.969Z,57.40
2018-09-03T07:55:04.948Z,55.80
2018-09-03T07:57:34.676Z,57.70
2018-09-03T08:00:04.382Z,57.50
2018-09-03T08:02:33.607Z,55.10
2018-09-03T08:05:03.573Z,56.40
2018-09-03T08:07:32.851Z,54.70
2018-09-03T08:10:02.552Z,53.70
2018-09-03T08:12:32.027Z,56.50
2018-09-03T08:15:01.489Z,57.10
2018-09-03T08:17:31.462Z,56.50
2018-09-03T08:20:02.223Z,52.80
2018-09-03T08:22:31.471Z,53.60
2018-09-03T08:25:00.672Z,53.20
2018-09-03T08:27:32.354Z,51.80
2018-09-03T08:30:01.788Z,52.90
2018-09-03T08:32:30.937Z,49.70
2018-09-03T08:35:01.167Z,52.00
2018-09-03T08:37:31.968Z,45.50
2018-09-03T08:40:01.784Z,44.20
2018-09-03T08:42:31.077Z,45.60
2018-09-03T08:45:01.881Z,44.70
2018-09-03T08:47:32.993Z,47.30
2018-09-03T08:50:02.675Z,44.80
2018-09-03T08:52:32.788Z,50.00
2018-09-03T08:55:02.201Z,47.30
2018-09-03T08:57:32.248Z,46.30
2018-09-03T09:00:03.204Z,44.40
2018-09-03T09:02:32.916Z,44.10
2018-09-03T09:05:02.370Z,45.40
2018-09-03T09:07:32.547Z,42.90
2018-09-03T09:10:03.213Z,42.60
2018-09-03T09:12:33.782Z,43.90
2018-09-03T09:15:03.339Z,43.00
2018-09-03T09:17:33.091Z,42.80
2018-09-03T09:20:03.020Z,46.60
2018-09-03T09:22:33.053Z,45.90
2018-09-03T09:25:02.480Z,43.60
2018-09-03T09:27:32.935Z,44.00
2018-09-03T09:30:03.386Z,44.60
2018-09-03T09:32:32.824Z,44.30
2018-09-03T09:35:02.592Z,44.10
2018-09-03T09:37:34.833Z,43.10
2018-09-03T09:40:07.952Z,42.20
2018-09-03T09:42:40.604Z,41.30
2018-09-03T09:45:11.606Z,41.00
2018-09-03T09:47:43.440Z,41.40
2018-09-03T09:50:13.953Z,40.90
2018-09-03T09:52:43.485Z,39.80
2018-09-03T09:55:13.874Z,38.20
2018-09-03T09:57:43.332Z,40.80
2018-09-03T10:00:17.658Z,40.20
2018-09-03T10:02:47.870Z,43.00
2018-09-03T10:05:19.151Z,42.80
2018-09-03T10:07:49.598Z,42.80
2018-09-03T10:10:19.757Z,40.70
2018-09-03T10:12:53.706Z,41.00
2018-09-03T10:15:25.387Z,43.50
2018-09-03T10:17:55.115Z,41.10
2018-09-03T10:20:24.493Z,43.20
2018-09-03T10:22:56.025Z,42.90
2018-09-03T10:25:32.884Z,42.90
2018-09-03T10:28:02.469Z,43.80
2018-09-03T10:30:32.167Z,45.20
2018-09-03T10:33:01.706Z,47.50
2018-09-03T10:35:35.250Z,47.60
2018-09-03T10:38:18.660Z,45.60
2018-09-03T10:40:48.749Z,47.60
2018-09-03T10:43:18.376Z,50.90
2018-09-03T10:45:47.874Z,47.00
2018-09-03T10:48:18.051Z,44.90
2018-09-03T10:50:47.527Z,45.60
2018-09-03T10:53:16.916Z,45.10
2018-09-03T10:55:47.430Z,45.70
2018-09-03T10:58:17.768Z,46.80
2018-09-03T11:00:48.017Z,45.30
2018-09-03T11:03:17.782Z,43.80
2018-09-03T11:05:47.200Z,44.40
2018-09-03T11:08:18.847Z,44.60
2018-09-03T11:10:48.404Z,43.50
2018-09-03T11:13:17.848Z,40.50
2018-09-03T11:15:47.425Z,42.40
2018-09-03T11:18:16.751Z,42.30
2018-09-03T11:20:46.179Z,37.80
2018-09-03T11:23:15.480Z,37.70
2018-09-03T11:25:45.266Z,38.40
2018-09-03T11:28:14.976Z,39.20
2018-09-03T11:30:44.327Z,38.40
2018-09-03T11:33:13.623Z,40.80
2018-09-03T11:35:46.809Z,40.60
2018-09-03T11:38:16.633Z,41.20
2018-09-03T11:40:46.112Z,39.50
2018-09-03T11:43:15.574Z,38.70
2018-09-03T11:45:46.055Z,37.80
2018-09-03T11:48:15.878Z,36.80
2018-09-03T11:50:46.649Z,38.10
2018-09-03T11:53:16.589Z,37.40
2018-09-03T11:55:50.624Z,35.40
2018-09-03T11:58:20.322Z,37.40
2018-09-03T12:00:53.117Z,34.10
2018-09-03T12:03:22.961Z,36.30
2018-09-03T12:05:55.020Z,34.40
2018-09-03T12:08:25.192Z,37.20
2018-09-03T12:10:55.008Z,37.60
2018-09-03T12:13:24.515Z,35.70
2018-09-03T12:16:14.447Z,35.00
2018-09-03T12:18:46.970Z,35.80
2018-09-03T12:21:16.930Z,39.00
2018-09-03T12:23:47.366Z,39.00
2018-09-03T12:26:18.510Z,38.20
2018-09-03T12:28:53.880Z,36.10
2018-09-03T12:31:24.406Z,39.00
2018-09-03T12:33:55.264Z,36.10
2018-09-03T12:36:26.320Z,34.50
2018-09-03T12:39:02.045Z,35.00
2018-09-03T12:41:32.272Z,34.20
2018-09-03T12:44:08.152Z,35.20
2018-09-03T12:49:20.274Z,38.70
2018-09-03T12:51:52.780Z,37.10
2018-09-03T12:54:29.688Z,35.10
2018-09-03T12:57:04.040Z,35.20
2018-09-03T12:59:34.292Z,35.90
2018-09-03T13:02:03.925Z,38.20
2018-09-03T13:04:33.658Z,38.90
2018-09-03T13:07:04.451Z,35.80
2018-09-03T13:09:34.985Z,37.40
2018-09-03T13:12:05.357Z,37.80
2018-09-03T13:14:34.639Z,39.50
2018-09-03T13:17:04.214Z,39.90
2018-09-03T13:19:34.257Z,38.40
2018-09-03T13:22:04.053Z,40.20
2018-09-03T13:24:33.920Z,38.40
2018-09-03T13:27:03.361Z,37.50
2018-09-03T13:29:33.420Z,36.80
2018-09-03T13:32:03.227Z,36.10
2018-09-03T13:34:32.584Z,34.00
2018-09-03T13:37:03.963Z,36.30
2018-09-03T13:39:33.237Z,33.70
2018-09-03T13:42:02.477Z,32.60
2018-09-03T13:44:31.783Z,32.50
2018-09-03T13:47:01.468Z,30.70
2018-09-03T13:49:30.681Z,32.50
2018-09-03T13:51:59.893Z,32.00
2018-09-03T13:54:29.341Z,31.30
2018-09-03T13:56:58.971Z,29.60
2018-09-03T13:59:28.174Z,29.50
2018-09-03T14:01:57.388Z,29.50
2018-09-03T14:04:26.607Z,29.50
2018-09-03T14:06:56.021Z,31.10
2018-09-03T14:09:26.171Z,33.20
2018-09-03T14:11:56.506Z,32.10
2018-09-03T14:14:25.727Z,30.90
2018-09-03T14:16:57.862Z,33.40
2018-09-03T14:19:27.100Z,30.80
2018-09-03T14:21:56.810Z,32.70
2018-09-03T14:24:26.692Z,32.10
2018-09-03T14:26:56.102Z,31.10
2018-09-03T14:29:26.144Z,30.60
2018-09-03T14:31:55.352Z,28.90
2018-09-03T14:34:24.590Z,30.30
2018-09-03T14:36:53.977Z,31.70
2018-09-03T14:39:23.180Z,30.90
2018-09-03T14:41:52.659Z,32.00
2018-09-03T14:44:22.132Z,33.30
2018-09-03T14:46:51.694Z,31.70
2018-09-03T14:49:20.931Z,31.00
2018-09-03T14:51:50.138Z,31.60
2018-09-03T14:54:19.336Z,32.70
2018-09-03T14:56:48.750Z,28.10
2018-09-03T14:59:17.985Z,30.70
2018-09-03T15:01:47.156Z,30.50
2018-09-03T15:04:16.590Z,28.90
2018-09-03T15:06:46.023Z,29.70
2018-09-03T15:09:15.234Z,29.60
2018-09-03T15:11:46.160Z,30.60
2018-09-03T15:14:15.385Z,29.30
2018-09-03T15:16:45.533Z,28.90
2018-09-03T15:19:14.782Z,28.80
2018-09-03T15:21:44.093Z,26.60
2018-09-03T15:24:14.108Z,25.60
2018-09-03T15:26:43.567Z,25.40
2018-09-03T15:29:12.696Z,25.60
2018-09-03T15:31:43.510Z,26.30
2018-09-03T15:34:13.640Z,26.00
2018-09-03T15:36:43.327Z,26.60
2018-09-03T15:39:13.175Z,28.50
2018-09-03T15:41:43.347Z,26.50
2018-09-03T15:44:12.629Z,26.50
2018-09-03T15:46:41.942Z,28.50
2018-09-03T15:49:11.208Z,26.90
2018-09-03T15:51:40.490Z,29.50
2018-09-03T15:54:10.836Z,26.90
2018-09-03T15:56:40.178Z,28.40
2018-09-03T15:59:09.373Z,29.30
2018-09-03T16:01:38.900Z,28.90
2018-09-03T16:04:08.604Z,31.10
2018-09-03T16:06:38.629Z,29.40
2018-09-03T16:09:10.154Z,31.30
2018-09-03T16:11:39.595Z,32.40
2018-09-03T16:14:09.331Z,33.30
2018-09-03T16:16:38.949Z,36.30
2018-09-03T16:19:08.178Z,37.60
2018-09-03T16:21:38.104Z,36.80
2018-09-03T16:24:07.356Z,38.80
2018-09-03T16:26:36.911Z,39.80
2018-09-03T16:29:06.240Z,42.10
2018-09-03T16:31:37.979Z,44.10
2018-09-03T16:34:07.544Z,45.10
2018-09-03T16:36:38.104Z,48.80
2018-09-03T16:39:08.384Z,52.00
2018-09-03T16:41:37.995Z,52.90
2018-09-03T16:44:07.334Z,53.20
2018-09-03T16:46:36.597Z,51.50
2018-09-03T16:49:05.934Z,49.70
2018-09-03T16:51:36.096Z,48.60
2018-09-03T16:54:05.622Z,50.80
2018-09-03T16:56:35.978Z,49.10
2018-09-03T16:59:05.557Z,49.30
2018-09-03T17:01:35.356Z,49.70
2018-09-03T17:04:06.826Z,50.10
2018-09-03T17:06:37.625Z,50.60
2018-09-03T17:09:07.758Z,50.40
2018-09-03T17:11:37.469Z,46.80
2018-09-03T17:14:08.494Z,47.40
2018-09-03T17:16:39.812Z,49.40
2018-09-03T17:19:14.049Z,50.20
2018-09-03T17:21:44.172Z,43.60
2018-09-03T17:24:14.686Z,44.70
2018-09-03T17:26:45.756Z,43.70
2018-09-03T17:29:17.216Z,49.40
2018-09-03T17:31:50.214Z,50.00
2018-09-03T17:34:19.937Z,52.70
2018-09-03T17:36:56.703Z,55.80
2018-09-03T17:39:26.297Z,59.60
2018-09-03T17:41:55.800Z,63.10
2018-09-03T17:44:25.359Z,68.10
2018-09-03T17:46:55.903Z,73.50
2018-09-03T17:49:25.824Z,73.70
2018-09-03T17:51:57.495Z,76.60
2018-09-03T17:54:27.552Z,81.20
2018-09-03T17:57:00.844Z,84.60
2018-09-03T17:59:31.528Z,85.80
2018-09-03T18:02:01.411Z,86.30
2018-09-03T18:04:31.386Z,84.70
2018-09-03T18:07:04.631Z,86.00
2018-09-03T18:09:34.055Z,86.40
2018-09-03T18:12:03.752Z,84.20
2018-09-03T18:14:33.513Z,86.90
2018-09-03T18:17:18.015Z,85.50
2018-09-03T18:19:48.658Z,85.30
2018-09-03T18:22:18.168Z,84.80
2018-09-03T18:24:47.873Z,86.60
2018-09-03T18:27:17.940Z,84.10
2018-09-03T18:29:47.741Z,85.20
2018-09-03T18:32:22.979Z,89.60
2018-09-03T18:34:53.715Z,91.50
2018-09-03T18:37:23.228Z,90.20
2018-09-03T18:39:52.835Z,88.50
2018-09-03T18:42:22.390Z,88.60
2018-09-03T18:44:51.898Z,90.60
2018-09-03T18:47:26.050Z,92.70
2018-09-03T18:49:55.598Z,94.80
2018-09-03T18:52:25.275Z,94.00
2018-09-03T18:54:55.108Z,94.70
2018-09-03T18:57:26.827Z,94.70
2018-09-03T19:00:03.213Z,95.40
2018-09-03T19:02:36.143Z,94.90
2018-09-03T19:05:09.613Z,95.80
2018-09-03T19:07:40.393Z,96.40
2018-09-03T19:10:10.765Z,96.20
2018-09-03T19:12:41.747Z,95.50
2018-09-03T19:15:15.321Z,94.50
2018-09-03T19:17:44.908Z,94.20
2018-09-03T19:20:15.555Z,92.60
2018-09-03T19:22:45.227Z,91.40
2018-09-03T19:25:15.061Z,93.70
2018-09-03T19:27:49.128Z,93.60
2018-09-03T19:30:22.386Z,94.60
2018-09-03T19:32:56.352Z,94.70
2018-09-03T19:35:26.460Z,94.80
2018-09-03T19:37:57.319Z,95.20
2018-09-03T19:40:27.717Z,94.90
2018-09-03T19:42:58.336Z,94.80
2018-09-03T19:45:32.304Z,93.70
2018-09-03T19:48:02.074Z,94.70
2018-09-03T19:50:35.405Z,95.00
2018-09-03T19:53:08.015Z,93.80
2018-09-03T19:55:44.434Z,94.50
2018-09-03T19:58:15.475Z,95.40
2018-09-03T20:00:47.457Z,93.50
2018-09-03T20:03:17.275Z,94.60
2018-09-03T20:05:56.692Z,93.50
2018-09-03T20:08:34.049Z,94.90
2018-09-03T20:11:03.653Z,96.00
2018-09-03T20:13:33.102Z,96.50
2018-09-03T20:16:03.804Z,98.00
2018-09-03T20:18:33.412Z,97.80
2018-09-03T20:21:03.612Z,98.80
2018-09-03T20:23:33.414Z,99.40
2018-09-03T20:26:03.397Z,98.10
2018-09-03T20:28:33.168Z,98.10
2018-09-03T20:31:03.671Z,97.30
2018-09-03T20:33:34.480Z,96.40
2018-09-03T20:36:10.476Z,96.20
2018-09-03T20:38:40.542Z,95.70
2018-09-03T20:41:11.691Z,96.50
2018-09-03T20:43:42.160Z,96.70
2018-09-03T20:46:13.790Z,96.40
2018-09-03T20:48:43.535Z,96.30
2018-09-03T20:51:13.070Z,97.10
2018-09-03T20:53:49.196Z,98.20
2018-09-03T20:56:21.223Z,99.20
2018-09-03T20:58:51.853Z,99.00
2018-09-03T21:01:22.255Z,98.10
2018-09-03T21:03:52.031Z,96.20
2018-09-03T21:06:23.542Z,92.70
2018-09-03T21:08:53.242Z,91.50
2018-09-03T21:11:24.165Z,93.10
2018-09-03T21:13:53.984Z,94.20
2018-09-03T21:16:23.609Z,94.50
2018-09-03T21:18:55.483Z,96.30
2018-09-03T21:21:25.486Z,95.90
2018-09-03T21:23:55.487Z,97.10
2018-09-03T21:26:27.183Z,97.00
2018-09-03T21:28:58.801Z,97.10
2018-09-03T21:31:28.541Z,97.50
2018-09-03T21:33:58.276Z,97.30
2018-09-03T21:36:29.330Z,96.30
2018-09-03T21:38:59.553Z,95.10
2018-09-03T21:41:29.132Z,95.90
2018-09-03T21:43:59.308Z,95.80
2018-09-03T21:46:33.169Z,95.60
2018-09-03T21:49:03.824Z,96.30
2018-09-03T21:51:38.719Z,96.20
2018-09-03T21:54:08.599Z,96.20
2018-09-03T21:56:38.857Z,94.50
2018-09-03T21:59:09.463Z,94.50
2018-09-03T22:01:39.367Z,95.40
2018-09-03T22:04:11.755Z,96.30
2018-09-03T22:06:41.509Z,96.40
2018-09-03T22:09:12.138Z,96.60
2018-09-03T22:11:42.545Z,97.30
2018-09-03T22:14:11.982Z,98.70
2018-09-03T22:16:46.098Z,97.90
2018-09-03T22:19:15.526Z,98.30
2018-09-03T22:21:45.861Z,99.00
2018-09-03T22:24:17.061Z,98.60
2018-09-03T22:26:51.356Z,98.80
2018-09-03T22:29:21.861Z,97.30
2018-09-03T22:31:52.683Z,95.10
2018-09-03T22:34:23.316Z,95.30
2018-09-03T22:36:53.500Z,95.40
2018-09-03T22:39:23.080Z,95.10
2018-09-03T22:41:52.677Z,95.60
2018-09-03T22:44:22.587Z,95.60
2018-09-03T22:46:53.533Z,95.10
2018-09-03T22:49:23.139Z,94.80
2018-09-03T22:51:53.176Z,94.80
2018-09-03T22:54:22.654Z,95.60
2018-09-03T22:56:53.058Z,96.30
2018-09-03T22:59:22.982Z,94.70
2018-09-03T23:01:52.638Z,93.40
2018-09-03T23:04:22.224Z,95.00
2018-09-03T23:06:51.702Z,95.10
2018-09-03T23:09:23.167Z,95.40
2018-09-03T23:11:53.501Z,96.60
2018-09-03T23:14:23.454Z,96.60
2018-09-03T23:16:53.653Z,96.60
2018-09-03T23:19:23.124Z,97.20
2018-09-03T23:21:53.183Z,97.20
2018-09-03T23:24:22.622Z,95.60
2018-09-03T23:26:56.027Z,96.30
2018-09-03T23:29:26.153Z,96.90
2018-09-03T23:31:55.801Z,96.00
2018-09-03T23:34:26.174Z,95.10
2018-09-03T23:37:03.078Z,94.00
2018-09-03T23:39:32.563Z,94.10
2018-09-03T23:42:12.393Z,94.40
2018-09-03T23:44:42.265Z,94.00
2018-09-03T23:47:14.065Z,93.40
2018-09-03T23:49:44.356Z,94.10
2018-09-03T23:52:14.005Z,94.60
2018-09-03T23:54:43.986Z,95.40
2018-09-03T23:57:29.834Z,94.60
2018-09-03T23:59:59.567Z,94.90
